Time;durP1;ratioP1;P1;durP2;ratioP2;P2;SDS_P1;SDS_P2;PMS_P1;PMS_P2;Temp;Humidity;BMP_temperature;BMP_pressure;BME280_temperature;BME280_humidity;BME280_pressure;Samples;Min_cycle;Max_cycle;Signal;HPM_P1;HPM_P2
2022/10/08 00:01:49;;;;;;;39.33;3.65;;;;;;;;;;5083536;28;20088;-72
2022/10/08 00:04:18;;;;;;;22.10;2.92;;;;;;;;;;5065712;28;20055;-72
2022/10/08 00:06:45;;;;;;;23.45;3.45;;;;;;;;;;5058574;28;20052;-72
2022/10/08 00:09:12;;;;;;;19.35;2.92;;;;;;;;;;5065770;28;20163;-72
2022/10/08 00:11:41;;;;;;;18.08;3.05;;;;;;;;;;5085471;28;20406;-72
2022/10/08 00:14:09;;;;;;;20.67;3.40;;;;;;;;;;5083683;28;20063;-72
2022/10/08 00:16:38;;;;;;;19.83;3.28;;;;;;;;;;5080843;28;20052;-72
2022/10/08 00:19:06;;;;;;;23.33;3.45;;;;;;;;;;5080761;28;20486;-72
2022/10/08 00:21:36;;;;;;;25.70;3.92;;;;;;;;;;5077716;28;20410;-72
2022/10/08 00:24:04;;;;;;;23.95;3.25;;;;;;;;;;5084259;28;20052;-72
2022/10/08 00:26:33;;;;;;;24.50;3.42;;;;;;;;;;5084815;28;20061;-72
2022/10/08 00:29:02;;;;;;;32.70;4.20;;;;;;;;;;5082890;28;20066;-72
2022/10/08 00:31:31;;;;;;;28.67;3.50;;;;;;;;;;5081896;28;20127;-72
2022/10/08 00:34:00;;;;;;;24.30;3.92;;;;;;;;;;5080110;28;20048;-72
2022/10/08 00:36:30;;;;;;;15.75;2.60;;;;;;;;;;5084986;28;20055;-72
2022/10/08 00:38:59;;;;;;;23.92;3.22;;;;;;;;;;5082951;28;20051;-72
2022/10/08 00:41:28;;;;;;;16.45;2.67;;;;;;;;;;5066163;28;20068;-72
2022/10/08 00:43:56;;;;;;;24.50;3.15;;;;;;;;;;5082880;28;20044;-72
2022/10/08 00:46:26;;;;;;;23.02;3.05;;;;;;;;;;5084417;28;20056;-72
2022/10/08 00:48:57;;;;;;;13.40;2.40;;;;;;;;;;5082839;28;20047;-72
2022/10/08 00:51:25;;;;;;;26.05;3.30;;;;;;;;;;5065761;28;20051;-72
2022/10/08 00:53:52;;;;;;;17.33;2.97;;;;;;;;;;5064371;28;20056;-72
2022/10/08 00:56:23;;;;;;;21.55;2.70;;;;;;;;;;5084991;28;20048;-72
2022/10/08 00:58:50;;;;;;;18.50;3.10;;;;;;;;;;5078461;28;20048;-73
2022/10/08 01:01:18;;;;;;;29.55;2.97;;;;;;;;;;5084963;28;20572;-72
2022/10/08 01:06:24;;;;;;;29.30;2.88;;;;;;;;;;5648441;23;20051;-72
2022/10/08 01:08:55;;;;;;;17.40;2.25;;;;;;;;;;4964848;28;20062;-72
2022/10/08 01:11:28;;;;;;;23.50;3.05;;;;;;;;;;4967393;28;20508;-72
2022/10/08 01:13:59;;;;;;;25.15;2.80;;;;;;;;;;4949568;28;20109;-72
2022/10/08 01:16:31;;;;;;;18.67;2.35;;;;;;;;;;4951252;28;20062;-72
2022/10/08 01:19:03;;;;;;;21.10;2.30;;;;;;;;;;4961900;28;20054;-72
2022/10/08 01:21:36;;;;;;;22.10;2.53;;;;;;;;;;4968593;28;20331;-72
2022/10/08 01:24:20;;;;;;;23.52;2.97;;;;;;;;;;4968401;28;20150;-72
2022/10/08 01:26:55;;;;;;;20.10;2.50;;;;;;;;;;4960499;28;20058;-72
2022/10/08 01:29:25;;;;;;;20.83;2.30;;;;;;;;;;4949396;28;20059;-72
2022/10/08 01:31:54;;;;;;;18.35;2.05;;;;;;;;;;4948994;28;20059;-72
2022/10/08 01:34:26;;;;;;;23.27;1.92;;;;;;;;;;4945523;28;20535;-72
2022/10/08 01:36:54;;;;;;;24.08;2.30;;;;;;;;;;4967730;28;20112;-72
2022/10/08 01:39:23;;;;;;;24.00;3.20;;;;;;;;;;4967949;28;20073;-72
2022/10/08 01:41:52;;;;;;;24.17;3.67;;;;;;;;;;4967598;28;20054;-72
2022/10/08 01:44:22;;;;;;;20.92;2.95;;;;;;;;;;4967560;28;20047;-72
2022/10/08 01:46:51;;;;;;;27.50;2.92;;;;;;;;;;4967669;28;20050;-72
2022/10/08 01:49:21;;;;;;;19.70;2.55;;;;;;;;;;4968295;28;20054;-72
2022/10/08 01:51:52;;;;;;;21.02;2.10;;;;;;;;;;4950452;28;20074;-72
2022/10/08 01:54:20;;;;;;;15.95;2.03;;;;;;;;;;4968095;28;20125;-72
2022/10/08 01:56:48;;;;;;;18.73;2.55;;;;;;;;;;4963939;28;20054;-72
2022/10/08 01:59:16;;;;;;;24.10;2.80;;;;;;;;;;4967929;28;20039;-72
2022/10/08 02:01:51;;;;;;;16.13;2.78;;;;;;;;;;4959449;28;20133;-72
2022/10/08 02:04:33;;;;;;;19.25;2.38;;;;;;;;;;4965334;28;20073;-72
2022/10/08 02:07:01;;;;;;;28.45;3.60;;;;;;;;;;4950281;28;20054;-72
2022/10/08 02:09:29;;;;;;;19.23;2.45;;;;;;;;;;4963148;28;20121;-72
2022/10/08 02:11:56;;;;;;;32.72;2.75;;;;;;;;;;4964051;28;20049;-72
2022/10/08 02:14:25;;;;;;;27.65;2.30;;;;;;;;;;4949405;28;20059;-72
2022/10/08 02:16:55;;;;;;;26.33;2.53;;;;;;;;;;4966014;28;20055;-72
2022/10/08 02:19:29;;;;;;;18.35;2.33;;;;;;;;;;4963547;28;20070;-72
2022/10/08 02:21:56;;;;;;;17.23;2.13;;;;;;;;;;4963963;28;20047;-72
2022/10/08 02:24:27;;;;;;;19.05;2.15;;;;;;;;;;4950260;28;20049;-72
2022/10/08 02:26:56;;;;;;;27.58;2.75;;;;;;;;;;4947387;28;20055;-72
2022/10/08 02:29:27;;;;;;;20.15;2.22;;;;;;;;;;4968216;28;20062;-72
2022/10/08 02:31:56;;;;;;;18.35;2.47;;;;;;;;;;4966472;28;20150;-72
2022/10/08 02:34:26;;;;;;;16.95;1.95;;;;;;;;;;4967808;28;20051;-72
2022/10/08 02:36:55;;;;;;;22.10;2.00;;;;;;;;;;4962439;28;20050;-72
2022/10/08 02:39:23;;;;;;;27.60;2.53;;;;;;;;;;4964098;28;20078;-72
2022/10/08 02:41:53;;;;;;;25.08;3.55;;;;;;;;;;4961658;28;20079;-72
2022/10/08 02:44:22;;;;;;;31.92;2.42;;;;;;;;;;4963549;28;20058;-72
2022/10/08 02:46:51;;;;;;;18.70;2.13;;;;;;;;;;4966110;28;20053;-72
2022/10/08 02:49:21;;;;;;;17.80;2.50;;;;;;;;;;4967837;28;20130;-72
2022/10/08 02:51:51;;;;;;;16.63;2.13;;;;;;;;;;4946405;28;20061;-72
2022/10/08 02:54:20;;;;;;;22.90;2.30;;;;;;;;;;4960928;28;20051;-72
2022/10/08 02:56:50;;;;;;;20.08;2.13;;;;;;;;;;4949701;28;20057;-72
2022/10/08 02:59:19;;;;;;;22.92;2.30;;;;;;;;;;4947719;28;20046;-72
2022/10/08 03:01:48;;;;;;;24.13;3.15;;;;;;;;;;4963944;28;20054;-72
2022/10/08 03:04:20;;;;;;;25.13;3.63;;;;;;;;;;4948809;28;20055;-72
2022/10/08 03:06:48;;;;;;;18.80;2.50;;;;;;;;;;4966125;28;20473;-72
2022/10/08 03:09:17;;;;;;;20.98;3.40;;;;;;;;;;4965744;28;20051;-72
2022/10/08 03:11:45;;;;;;;19.30;2.00;;;;;;;;;;4962424;28;20058;-72
2022/10/08 03:14:14;;;;;;;21.55;2.30;;;;;;;;;;4963148;28;20059;-72
2022/10/08 03:16:42;;;;;;;27.75;2.33;;;;;;;;;;4964661;28;20055;-72
2022/10/08 03:19:11;;;;;;;18.23;2.15;;;;;;;;;;4961400;28;20039;-72
2022/10/08 03:21:38;;;;;;;18.58;2.88;;;;;;;;;;4965101;28;20046;-72
2022/10/08 03:24:06;;;;;;;15.95;2.20;;;;;;;;;;4965354;28;20394;-72
2022/10/08 03:26:34;;;;;;;21.75;2.00;;;;;;;;;;4966546;28;20428;-72
2022/10/08 03:29:02;;;;;;;13.15;1.90;;;;;;;;;;4962766;28;20055;-72
2022/10/08 03:31:29;;;;;;;21.25;2.10;;;;;;;;;;4966732;28;20054;-72
2022/10/08 03:33:56;;;;;;;19.77;2.25;;;;;;;;;;4965898;28;20055;-72
2022/10/08 03:36:24;;;;;;;23.85;2.75;;;;;;;;;;4966159;28;20669;-72
2022/10/08 03:38:52;;;;;;;13.43;1.88;;;;;;;;;;4966049;28;20779;-72
2022/10/08 03:41:19;;;;;;;17.58;1.90;;;;;;;;;;4966415;28;20054;-72
2022/10/08 03:43:48;;;;;;;21.60;2.13;;;;;;;;;;4944795;28;20062;-72
2022/10/08 03:46:16;;;;;;;16.98;2.47;;;;;;;;;;4963597;28;20054;-72
2022/10/08 03:48:43;;;;;;;22.40;1.92;;;;;;;;;;4953565;28;20059;-72
2022/10/08 03:51:12;;;;;;;24.17;2.05;;;;;;;;;;4949417;28;20051;-72
2022/10/08 03:53:39;;;;;;;18.77;2.00;;;;;;;;;;4964112;28;20057;-72
2022/10/08 03:56:08;;;;;;;21.10;1.98;;;;;;;;;;4964743;28;20075;-72
2022/10/08 03:58:36;;;;;;;20.77;1.83;;;;;;;;;;4949154;28;20058;-72
2022/10/08 04:01:05;;;;;;;18.15;2.00;;;;;;;;;;4948744;28;20386;-72
2022/10/08 04:03:33;;;;;;;25.42;2.53;;;;;;;;;;4948416;28;20280;-72
2022/10/08 04:06:00;;;;;;;12.18;1.73;;;;;;;;;;4946498;28;20663;-72
2022/10/08 04:08:27;;;;;;;21.17;2.35;;;;;;;;;;4965813;28;20105;-72
2022/10/08 04:10:55;;;;;;;17.52;2.00;;;;;;;;;;4965855;28;20046;-72
2022/10/08 04:13:22;;;;;;;19.02;2.05;;;;;;;;;;4961910;28;20051;-72
2022/10/08 04:15:50;;;;;;;38.45;2.50;;;;;;;;;;4943145;28;20059;-72
2022/10/08 04:18:19;;;;;;;17.88;2.03;;;;;;;;;;4946906;28;20121;-72
2022/10/08 04:20:46;;;;;;;23.45;2.20;;;;;;;;;;4962292;28;20047;-72
2022/10/08 04:23:13;;;;;;;21.35;2.05;;;;;;;;;;4947677;28;20055;-72
2022/10/08 04:25:49;;;;;;;19.65;2.10;;;;;;;;;;4950913;28;20402;-72
2022/10/08 04:28:16;;;;;;;30.50;1.95;;;;;;;;;;4957168;28;20055;-72
2022/10/08 04:30:43;;;;;;;20.83;2.05;;;;;;;;;;4948244;28;20367;-72
2022/10/08 04:33:10;;;;;;;35.63;5.50;;;;;;;;;;4948256;28;20058;-72
2022/10/08 04:35:39;;;;;;;19.23;2.13;;;;;;;;;;4948392;28;20059;-72
2022/10/08 04:38:06;;;;;;;18.95;1.92;;;;;;;;;;4965230;28;20089;-72
2022/10/08 04:40:33;;;;;;;20.02;2.45;;;;;;;;;;4946320;28;20073;-72
2022/10/08 04:43:00;;;;;;;21.23;2.22;;;;;;;;;;4962016;28;20051;-72
2022/10/08 04:45:28;;;;;;;18.90;1.98;;;;;;;;;;4961950;28;20118;-72
2022/10/08 04:47:55;;;;;;;31.05;2.58;;;;;;;;;;4964423;28;20498;-72
2022/10/08 04:50:22;;;;;;;19.40;2.33;;;;;;;;;;4965307;28;20412;-72
2022/10/08 04:52:51;;;;;;;22.88;1.95;;;;;;;;;;4964802;28;20043;-72
2022/10/08 04:55:18;;;;;;;15.10;1.63;;;;;;;;;;4943694;28;20070;-72
2022/10/08 04:57:45;;;;;;;17.77;1.80;;;;;;;;;;4964065;28;20043;-72
2022/10/08 05:00:13;;;;;;;20.38;1.95;;;;;;;;;;4944342;28;20051;-72
2022/10/08 05:02:40;;;;;;;23.00;1.88;;;;;;;;;;4963132;28;20104;-72
2022/10/08 05:05:08;;;;;;;18.35;1.60;;;;;;;;;;4965810;28;20047;-72
2022/10/08 05:07:35;;;;;;;17.70;2.08;;;;;;;;;;4946952;28;20058;-72
2022/10/08 05:10:04;;;;;;;21.27;2.33;;;;;;;;;;4965333;28;20294;-72
2022/10/08 05:12:31;;;;;;;13.05;1.83;;;;;;;;;;4965461;28;20051;-72
2022/10/08 05:14:58;;;;;;;20.30;2.33;;;;;;;;;;4963808;28;20054;-72
2022/10/08 05:17:25;;;;;;;15.95;1.73;;;;;;;;;;4949733;28;20059;-72
2022/10/08 05:19:52;;;;;;;25.80;2.10;;;;;;;;;;4963047;28;20046;-72
2022/10/08 05:22:20;;;;;;;13.75;1.83;;;;;;;;;;4961739;28;20083;-72
2022/10/08 05:24:47;;;;;;;20.55;1.73;;;;;;;;;;4964585;28;20063;-72
2022/10/08 05:27:15;;;;;;;19.15;2.08;;;;;;;;;;4959486;28;20047;-72
2022/10/08 05:29:42;;;;;;;16.13;1.70;;;;;;;;;;4963826;28;20176;-72
2022/10/08 05:32:10;;;;;;;22.27;2.28;;;;;;;;;;4963420;28;20121;-72
2022/10/08 05:34:37;;;;;;;16.65;1.80;;;;;;;;;;4961054;28;20058;-72
2022/10/08 05:37:04;;;;;;;16.73;2.10;;;;;;;;;;4962406;28;20047;-72
2022/10/08 05:39:31;;;;;;;14.77;1.45;;;;;;;;;;4961123;28;20051;-72
2022/10/08 05:41:58;;;;;;;14.20;1.75;;;;;;;;;;4944046;29;20063;-72
2022/10/08 05:44:27;;;;;;;14.95;2.92;;;;;;;;;;4962473;28;20143;-72
2022/10/08 05:46:54;;;;;;;17.33;1.85;;;;;;;;;;4946254;28;20055;-72
2022/10/08 05:49:22;;;;;;;15.65;2.20;;;;;;;;;;4967594;28;20181;-72
2022/10/08 05:51:50;;;;;;;15.82;1.73;;;;;;;;;;4967274;28;20063;-72
2022/10/08 05:54:17;;;;;;;18.33;1.58;;;;;;;;;;4966708;28;20050;-73
2022/10/08 05:56:45;;;;;;;16.98;1.80;;;;;;;;;;4966018;28;20506;-71
2022/10/08 05:59:15;;;;;;;13.65;1.67;;;;;;;;;;4966168;28;20046;-71
2022/10/08 06:01:44;;;;;;;16.02;1.67;;;;;;;;;;4945186;28;20058;-72
2022/10/08 06:04:12;;;;;;;18.50;1.17;;;;;;;;;;4964342;28;20062;-72
2022/10/08 06:06:39;;;;;;;4.03;0.90;;;;;;;;;;4963685;28;20062;-73
2022/10/08 06:09:07;;;;;;;8.88;1.05;;;;;;;;;;4965138;28;20527;-72
2022/10/08 06:11:36;;;;;;;5.28;0.60;;;;;;;;;;4965697;28;20062;-73
2022/10/08 06:14:04;;;;;;;11.25;0.82;;;;;;;;;;4967322;28;20051;-73
2022/10/08 06:16:32;;;;;;;7.85;0.93;;;;;;;;;;4948082;28;20043;-73
2022/10/08 06:19:02;;;;;;;8.63;0.93;;;;;;;;;;4949434;28;20406;-73
2022/10/08 06:21:29;;;;;;;8.75;0.68;;;;;;;;;;4949634;28;20089;-72
2022/10/08 06:23:57;;;;;;;7.75;0.85;;;;;;;;;;4966605;28;20047;-72
2022/10/08 06:26:26;;;;;;;8.13;1.02;;;;;;;;;;4966559;28;20054;-72
2022/10/08 06:28:54;;;;;;;8.65;0.90;;;;;;;;;;4966009;28;20852;-72
2022/10/08 06:31:21;;;;;;;8.00;0.90;;;;;;;;;;4967670;28;20059;-73
2022/10/08 06:33:48;;;;;;;6.07;0.80;;;;;;;;;;4967358;28;20433;-71
2022/10/08 06:36:18;;;;;;;8.45;1.10;;;;;;;;;;4967217;28;20058;-71
2022/10/08 06:38:49;;;;;;;6.13;0.70;;;;;;;;;;4965246;28;20611;-71
2022/10/08 06:41:16;;;;;;;9.90;0.90;;;;;;;;;;4965381;28;20145;-71
2022/10/08 06:43:44;;;;;;;11.82;1.63;;;;;;;;;;4966996;28;20054;-71
2022/10/08 06:46:11;;;;;;;4.85;1.05;;;;;;;;;;4967314;28;20043;-72
2022/10/08 06:48:38;;;;;;;4.80;0.82;;;;;;;;;;4967026;28;20055;-72
2022/10/08 06:51:07;;;;;;;4.72;0.60;;;;;;;;;;4947411;28;20062;-72
2022/10/08 06:53:35;;;;;;;2.92;0.50;;;;;;;;;;4965579;28;20121;-72
2022/10/08 06:56:04;;;;;;;5.78;0.98;;;;;;;;;;4950781;28;20390;-72
2022/10/08 06:58:31;;;;;;;5.88;0.80;;;;;;;;;;4967655;28;20047;-72
2022/10/08 07:01:03;;;;;;;10.48;0.98;;;;;;;;;;4949175;28;20066;-72
2022/10/08 07:03:30;;;;;;;12.85;2.55;;;;;;;;;;4947370;28;20121;-72
2022/10/08 07:06:00;;;;;;;10.30;0.90;;;;;;;;;;4962763;28;20390;-72
2022/10/08 07:08:27;;;;;;;11.25;1.20;;;;;;;;;;4965486;28;20153;-72
2022/10/08 07:10:56;;;;;;;9.73;1.00;;;;;;;;;;4945709;28;20061;-72
2022/10/08 07:13:23;;;;;;;10.73;1.30;;;;;;;;;;4964708;28;20778;-72
2022/10/08 07:15:51;;;;;;;15.07;1.80;;;;;;;;;;4966495;28;20055;-72
2022/10/08 07:18:18;;;;;;;12.73;1.70;;;;;;;;;;4965003;28;20059;-72
2022/10/08 07:20:54;;;;;;;14.50;1.58;;;;;;;;;;4949005;28;20501;-72
2022/10/08 07:23:21;;;;;;;14.20;2.05;;;;;;;;;;4966982;28;20453;-72
2022/10/08 07:25:56;;;;;;;9.65;1.88;;;;;;;;;;4964273;28;20119;-72
2022/10/08 07:28:24;;;;;;;15.88;1.58;;;;;;;;;;4949218;28;20094;-72
2022/10/08 07:30:51;;;;;;;15.50;1.63;;;;;;;;;;4951295;28;20050;-72
2022/10/08 07:33:18;;;;;;;13.48;1.67;;;;;;;;;;4959738;28;20054;-72
2022/10/08 07:35:46;;;;;;;14.05;1.73;;;;;;;;;;4967152;28;20705;-72
2022/10/08 07:38:13;;;;;;;14.52;1.88;;;;;;;;;;4962203;28;20059;-72
2022/10/08 07:40:40;;;;;;;17.83;1.70;;;;;;;;;;4946694;28;20082;-72
2022/10/08 07:43:09;;;;;;;17.55;2.38;;;;;;;;;;4965675;28;20047;-72
2022/10/08 07:45:38;;;;;;;11.35;1.15;;;;;;;;;;4965158;28;20047;-73
2022/10/08 07:48:05;;;;;;;15.13;1.33;;;;;;;;;;4964658;28;20073;-72
2022/10/08 07:50:32;;;;;;;12.75;1.48;;;;;;;;;;4964821;28;20059;-72
2022/10/08 07:52:59;;;;;;;18.35;2.42;;;;;;;;;;4964496;28;20050;-72
2022/10/08 07:55:27;;;;;;;13.30;1.40;;;;;;;;;;4966287;28;20058;-72
2022/10/08 07:57:54;;;;;;;11.60;1.13;;;;;;;;;;4948125;28;20054;-72
2022/10/08 08:00:23;;;;;;;11.27;1.20;;;;;;;;;;4947182;28;20176;-72
2022/10/08 08:02:50;;;;;;;11.50;1.25;;;;;;;;;;4965074;28;20078;-72
2022/10/08 08:05:17;;;;;;;13.38;1.75;;;;;;;;;;4945225;28;20050;-73
2022/10/08 08:07:44;;;;;;;15.15;1.83;;;;;;;;;;4965186;28;20062;-73
2022/10/08 08:10:11;;;;;;;12.20;1.40;;;;;;;;;;4963246;28;20057;-72
2022/10/08 08:12:39;;;;;;;8.35;2.10;;;;;;;;;;4962124;28;20051;-73
2022/10/08 08:15:06;;;;;;;7.60;1.05;;;;;;;;;;4964445;28;20073;-73
2022/10/08 08:17:36;;;;;;;11.82;1.48;;;;;;;;;;4966380;28;20051;-73
2022/10/08 08:20:03;;;;;;;10.10;1.50;;;;;;;;;;4964359;28;20043;-73
2022/10/08 08:22:31;;;;;;;8.35;1.30;;;;;;;;;;4963870;28;20078;-73
2022/10/08 08:24:58;;;;;;;9.32;1.10;;;;;;;;;;4965287;28;20066;-73
2022/10/08 08:27:26;;;;;;;9.93;1.42;;;;;;;;;;4962252;28;20074;-73
2022/10/08 08:29:53;;;;;;;11.43;1.48;;;;;;;;;;4950998;28;20081;-73
2022/10/08 08:32:21;;;;;;;11.43;1.80;;;;;;;;;;4949407;28;20517;-73
2022/10/08 08:34:50;;;;;;;12.60;1.17;;;;;;;;;;4962383;28;20051;-73
2022/10/08 08:37:17;;;;;;;10.60;1.52;;;;;;;;;;4965891;28;20051;-73
2022/10/08 08:39:44;;;;;;;12.20;1.35;;;;;;;;;;4965103;28;20061;-73
2022/10/08 08:42:16;;;;;;;11.85;1.50;;;;;;;;;;4961813;28;20086;-73
2022/10/08 08:44:44;;;;;;;9.43;1.35;;;;;;;;;;4965425;28;20090;-73
2022/10/08 08:47:14;;;;;;;8.10;1.25;;;;;;;;;;4950047;28;20058;-73
2022/10/08 08:49:43;;;;;;;12.52;1.77;;;;;;;;;;4948138;28;20059;-73
2022/10/08 08:52:13;;;;;;;7.72;1.05;;;;;;;;;;4964600;28;20070;-73
2022/10/08 08:54:41;;;;;;;16.88;1.50;;;;;;;;;;4964386;28;20054;-73
2022/10/08 08:57:12;;;;;;;11.40;2.28;;;;;;;;;;4964876;28;20051;-73
2022/10/08 08:59:42;;;;;;;12.57;1.40;;;;;;;;;;4963504;28;20047;-73
2022/10/08 09:02:15;;;;;;;13.25;1.40;;;;;;;;;;4963864;28;20054;-73
2022/10/08 09:04:45;;;;;;;11.18;1.80;;;;;;;;;;4962384;28;20143;-73
2022/10/08 09:07:15;;;;;;;9.07;1.20;;;;;;;;;;4964507;28;20050;-73
2022/10/08 09:09:44;;;;;;;15.50;2.78;;;;;;;;;;4947707;28;20055;-73
2022/10/08 09:12:15;;;;;;;14.40;1.55;;;;;;;;;;4947248;28;20108;-73
2022/10/08 09:14:44;;;;;;;9.02;1.42;;;;;;;;;;4944789;28;20117;-74
2022/10/08 09:17:15;;;;;;;8.07;1.15;;;;;;;;;;4964428;28;20062;-73
2022/10/08 09:19:42;;;;;;;11.88;1.55;;;;;;;;;;4962825;28;20058;-73
2022/10/08 09:22:19;;;;;;;14.52;1.90;;;;;;;;;;4964606;28;20050;-73
2022/10/08 09:24:47;;;;;;;15.23;1.92;;;;;;;;;;4965652;28;20656;-73
2022/10/08 09:27:15;;;;;;;15.27;1.50;;;;;;;;;;4949433;28;20576;-73
2022/10/08 09:29:42;;;;;;;12.50;1.33;;;;;;;;;;4966294;28;20126;-73
2022/10/08 09:32:15;;;;;;;15.57;1.63;;;;;;;;;;4968837;28;20058;-73
2022/10/08 09:34:42;;;;;;;10.87;1.63;;;;;;;;;;4968506;28;20478;-73
2022/10/08 09:37:14;;;;;;;12.65;2.78;;;;;;;;;;4967517;28;20059;-73
2022/10/08 09:40:03;;;;;;;16.25;1.90;;;;;;;;;;4965946;28;20450;-73
2022/10/08 09:42:30;;;;;;;11.57;1.73;;;;;;;;;;4965397;28;20079;-73
2022/10/08 09:45:02;;;;;;;12.02;1.67;;;;;;;;;;4952196;28;20059;-73
2022/10/08 09:47:30;;;;;;;11.60;1.83;;;;;;;;;;4969053;28;20505;-73
2022/10/08 09:50:06;;;;;;;13.48;1.40;;;;;;;;;;4947602;28;20102;-73
2022/10/08 09:52:34;;;;;;;13.75;1.70;;;;;;;;;;4968479;28;20609;-73
2022/10/08 09:55:04;;;;;;;9.98;1.20;;;;;;;;;;4967695;28;20523;-73
2022/10/08 09:57:32;;;;;;;9.05;1.92;;;;;;;;;;4965954;28;20062;-73
2022/10/08 10:00:01;;;;;;;7.85;1.02;;;;;;;;;;4965250;28;20054;-73
2022/10/08 10:02:30;;;;;;;8.80;1.60;;;;;;;;;;4950943;28;20065;-73
2022/10/08 10:04:57;;;;;;;11.60;1.25;;;;;;;;;;4947246;28;20450;-73
2022/10/08 10:07:26;;;;;;;9.27;1.50;;;;;;;;;;4967920;28;20078;-73
2022/10/08 10:09:54;;;;;;;16.33;1.55;;;;;;;;;;4948553;28;20058;-73
2022/10/08 10:12:26;;;;;;;9.23;1.30;;;;;;;;;;4966487;28;20397;-73
2022/10/08 10:14:55;;;;;;;9.15;1.48;;;;;;;;;;4965190;28;20595;-73
2022/10/08 10:17:36;;;;;;;18.70;2.03;;;;;;;;;;4966090;28;20051;-73
2022/10/08 10:20:05;;;;;;;15.82;1.98;;;;;;;;;;4967829;28;20515;-73
2022/10/08 10:22:34;;;;;;;13.18;1.52;;;;;;;;;;4968022;28;20050;-73
2022/10/08 10:25:04;;;;;;;9.63;1.50;;;;;;;;;;4967908;28;20082;-73
2022/10/08 10:27:35;;;;;;;10.52;1.50;;;;;;;;;;4963712;28;20051;-73
2022/10/08 10:30:15;;;;;;;18.38;1.65;;;;;;;;;;4962761;28;20512;-73
2022/10/08 10:32:45;;;;;;;14.00;1.55;;;;;;;;;;4963721;28;20520;-73
2022/10/08 10:35:14;;;;;;;9.63;1.45;;;;;;;;;;4965250;28;20051;-73
2022/10/08 10:37:45;;;;;;;9.63;1.30;;;;;;;;;;4966709;28;20077;-73
2022/10/08 10:40:33;;;;;;;11.32;1.40;;;;;;;;;;4966711;28;20106;-73
2022/10/08 10:43:18;;;;;;;12.38;1.45;;;;;;;;;;4966432;28;20039;-73
2022/10/08 10:45:48;;;;;;;13.60;1.65;;;;;;;;;;4957003;28;20050;-73
2022/10/08 10:48:15;;;;;;;8.20;1.30;;;;;;;;;;4966725;28;20105;-73
2022/10/08 10:50:46;;;;;;;13.82;1.60;;;;;;;;;;4965321;28;20054;-74
2022/10/08 10:53:16;;;;;;;14.50;2.03;;;;;;;;;;4963797;28;20055;-73
2022/10/08 10:55:50;;;;;;;13.07;1.65;;;;;;;;;;4964619;28;20051;-74
2022/10/08 10:58:30;;;;;;;12.63;1.48;;;;;;;;;;4967616;28;20055;-73
2022/10/08 11:01:03;;;;;;;13.18;1.42;;;;;;;;;;4965485;28;20058;-74
2022/10/08 11:03:36;;;;;;;15.90;1.65;;;;;;;;;;4951083;28;20058;-73
2022/10/08 11:06:13;;;;;;;10.80;1.52;;;;;;;;;;4960371;28;20191;-73
2022/10/08 11:08:45;;;;;;;9.65;1.48;;;;;;;;;;4965646;28;20049;-73
2022/10/08 11:11:22;;;;;;;14.93;1.90;;;;;;;;;;4960971;28;20690;-73
2022/10/08 11:14:04;;;;;;;11.73;1.88;;;;;;;;;;4965314;28;20050;-73
2022/10/08 11:16:43;;;;;;;15.75;1.95;;;;;;;;;;4937420;28;20516;-74
2022/10/08 11:19:15;;;;;;;9.82;1.40;;;;;;;;;;4966575;28;20129;-74
2022/10/08 11:21:47;;;;;;;12.35;1.95;;;;;;;;;;4963205;28;20398;-73
2022/10/08 11:24:21;;;;;;;8.68;1.50;;;;;;;;;;4962368;28;20053;-73
2022/10/08 11:26:54;;;;;;;9.45;1.55;;;;;;;;;;4964467;28;20054;-73
2022/10/08 11:29:24;;;;;;;11.02;1.90;;;;;;;;;;4967261;28;20418;-74
2022/10/08 11:31:53;;;;;;;9.13;1.63;;;;;;;;;;4966474;28;20652;-73
2022/10/08 11:34:25;;;;;;;11.27;1.83;;;;;;;;;;4943844;28;20417;-74
2022/10/08 11:36:59;;;;;;;14.02;1.30;;;;;;;;;;4948056;28;20077;-73
2022/10/08 11:39:28;;;;;;;14.07;1.50;;;;;;;;;;4964651;28;20059;-73
2022/10/08 11:41:59;;;;;;;9.68;1.30;;;;;;;;;;4965393;28;20497;-73
2022/10/08 11:44:27;;;;;;;12.02;1.88;;;;;;;;;;4948479;28;20060;-73
2022/10/08 11:47:16;;;;;;;9.95;1.70;;;;;;;;;;4964958;28;20082;-73
2022/10/08 11:49:44;;;;;;;7.97;1.33;;;;;;;;;;4964704;28;20058;-74
2022/10/08 11:52:15;;;;;;;8.90;1.50;;;;;;;;;;4961822;28;20049;-73
2022/10/08 11:54:48;;;;;;;12.48;1.70;;;;;;;;;;4965372;28;20043;-74
2022/10/08 11:57:19;;;;;;;12.57;2.22;;;;;;;;;;4948949;28;20059;-74
2022/10/08 11:59:46;;;;;;;8.18;1.27;;;;;;;;;;4964097;28;20054;-74
2022/10/08 12:02:25;;;;;;;11.95;1.20;;;;;;;;;;4966390;28;20055;-73
2022/10/08 12:04:53;;;;;;;11.65;1.48;;;;;;;;;;4963210;28;20516;-72
2022/10/08 12:07:23;;;;;;;8.70;1.20;;;;;;;;;;4964097;28;20450;-72
2022/10/08 12:10:25;;;;;;;14.85;1.45;;;;;;;;;;4963104;28;20055;-71
2022/10/08 12:13:21;;;;;;;12.57;1.38;;;;;;;;;;4958057;28;20731;-71
2022/10/08 12:15:49;;;;;;;8.32;1.23;;;;;;;;;;4958149;28;20054;-71
2022/10/08 12:18:31;;;;;;;9.23;1.30;;;;;;;;;;4964141;28;20063;-71
2022/10/08 12:21:19;;;;;;;5.55;0.85;;;;;;;;;;4960567;28;20043;-72
2022/10/08 12:23:46;;;;;;;11.05;1.10;;;;;;;;;;4964831;28;20437;-72
2022/10/08 12:26:14;;;;;;;8.80;1.30;;;;;;;;;;4964908;28;20146;-73
2022/10/08 12:28:49;;;;;;;12.70;1.40;;;;;;;;;;4948677;28;20142;-73
2022/10/08 12:31:18;;;;;;;13.32;1.60;;;;;;;;;;4949032;28;20110;-73
2022/10/08 12:33:57;;;;;;;10.32;1.50;;;;;;;;;;4963735;28;20097;-73
2022/10/08 12:36:29;;;;;;;11.13;1.50;;;;;;;;;;4961871;28;20063;-73
2022/10/08 12:38:58;;;;;;;10.70;1.25;;;;;;;;;;4945349;28;20064;-73
2022/10/08 12:41:28;;;;;;;9.52;1.25;;;;;;;;;;4962578;28;20523;-73
2022/10/08 12:43:58;;;;;;;19.52;2.50;;;;;;;;;;4963554;28;20421;-73
2022/10/08 12:46:30;;;;;;;14.05;1.52;;;;;;;;;;4965385;28;20563;-73
2022/10/08 12:49:01;;;;;;;12.00;1.30;;;;;;;;;;4964025;28;20050;-73
2022/10/08 12:51:32;;;;;;;13.35;1.88;;;;;;;;;;4964968;28;20377;-73
2022/10/08 12:54:00;;;;;;;14.00;1.90;;;;;;;;;;4965313;28;20051;-73
2022/10/08 12:56:28;;;;;;;16.38;1.58;;;;;;;;;;4968590;28;20055;-73
2022/10/08 12:58:56;;;;;;;10.07;2.38;;;;;;;;;;4968310;28;20054;-74
2022/10/08 13:01:24;;;;;;;7.57;1.30;;;;;;;;;;4964441;28;20141;-73
2022/10/08 13:04:06;;;;;;;10.15;1.23;;;;;;;;;;4963576;28;20118;-73
2022/10/08 13:06:34;;;;;;;10.52;1.52;;;;;;;;;;4965991;28;20063;-73
2022/10/08 13:09:02;;;;;;;11.95;1.20;;;;;;;;;;4968740;28;20146;-73
2022/10/08 13:11:29;;;;;;;13.68;1.48;;;;;;;;;;4965410;28;20051;-73
2022/10/08 13:13:56;;;;;;;13.30;1.27;;;;;;;;;;4961430;28;20146;-73
2022/10/08 13:16:25;;;;;;;6.85;1.83;;;;;;;;;;4968331;28;20055;-73
2022/10/08 13:18:53;;;;;;;9.05;1.23;;;;;;;;;;4963013;28;20047;-74
2022/10/08 13:21:25;;;;;;;11.52;1.80;;;;;;;;;;4954276;28;20398;-74
2022/10/08 13:23:53;;;;;;;11.77;1.73;;;;;;;;;;4969261;28;20047;-73
2022/10/08 13:26:43;;;;;;;9.25;1.48;;;;;;;;;;4965654;28;20058;-73
2022/10/08 13:29:33;;;;;;;10.90;1.80;;;;;;;;;;4969324;28;20398;-74
2022/10/08 13:32:01;;;;;;;11.52;1.88;;;;;;;;;;4965608;28;20057;-73
2022/10/08 13:34:30;;;;;;;8.30;1.38;;;;;;;;;;4966358;28;20047;-74
2022/10/08 13:36:58;;;;;;;13.35;1.70;;;;;;;;;;4947967;28;20047;-74
2022/10/08 13:39:29;;;;;;;8.93;1.33;;;;;;;;;;4953041;28;20071;-73
2022/10/08 13:41:57;;;;;;;8.90;1.50;;;;;;;;;;4962905;28;20449;-74
2022/10/08 13:44:25;;;;;;;7.75;1.35;;;;;;;;;;4966410;28;20110;-73
2022/10/08 13:46:52;;;;;;;10.10;1.55;;;;;;;;;;4968360;28;20478;-73
2022/10/08 13:49:20;;;;;;;11.25;2.58;;;;;;;;;;4965933;28;20059;-73
2022/10/08 13:51:47;;;;;;;8.90;1.35;;;;;;;;;;4967765;28;20102;-73
2022/10/08 13:54:17;;;;;;;11.35;1.42;;;;;;;;;;4962333;28;20085;-73
2022/10/08 13:56:46;;;;;;;13.18;2.00;;;;;;;;;;4965940;28;20090;-73
2022/10/08 13:59:14;;;;;;;19.58;2.53;;;;;;;;;;4966896;28;20048;-73
2022/10/08 14:01:41;;;;;;;11.20;1.58;;;;;;;;;;4967231;28;20448;-73
2022/10/08 14:04:08;;;;;;;8.27;1.60;;;;;;;;;;4967187;28;20402;-73
2022/10/08 14:06:36;;;;;;;10.70;1.90;;;;;;;;;;4964136;28;20055;-73
2022/10/08 14:09:04;;;;;;;13.65;1.83;;;;;;;;;;4964387;28;20050;-74
2022/10/08 14:11:31;;;;;;;11.80;1.65;;;;;;;;;;4963805;28;20476;-73
2022/10/08 14:14:00;;;;;;;9.77;1.48;;;;;;;;;;4965510;28;20046;-73
2022/10/08 14:16:27;;;;;;;8.18;1.83;;;;;;;;;;4966764;28;20063;-73
2022/10/08 14:18:54;;;;;;;8.27;1.70;;;;;;;;;;4968202;28;20101;-73
2022/10/08 14:21:22;;;;;;;11.10;1.67;;;;;;;;;;4967997;28;20062;-74
2022/10/08 14:23:49;;;;;;;5.88;1.33;;;;;;;;;;4965214;28;20049;-74
2022/10/08 14:26:16;;;;;;;6.50;1.30;;;;;;;;;;4966056;28;20058;-73
2022/10/08 14:28:43;;;;;;;11.95;1.50;;;;;;;;;;4962174;28;20051;-73
2022/10/08 14:31:13;;;;;;;11.05;1.27;;;;;;;;;;4968135;28;20417;-73
2022/10/08 14:33:40;;;;;;;9.35;1.67;;;;;;;;;;4966953;28;20058;-73
2022/10/08 14:36:12;;;;;;;8.27;1.45;;;;;;;;;;4968304;28;20105;-73
2022/10/08 14:38:39;;;;;;;16.45;2.10;;;;;;;;;;4967364;28;20493;-73
2022/10/08 14:41:07;;;;;;;6.13;1.20;;;;;;;;;;4967054;28;20061;-73
2022/10/08 14:43:34;;;;;;;8.88;1.50;;;;;;;;;;4966942;28;20065;-73
2022/10/08 14:46:01;;;;;;;6.55;1.30;;;;;;;;;;4963757;28;20494;-73
2022/10/08 14:48:30;;;;;;;11.15;1.63;;;;;;;;;;4967363;28;20066;-73
2022/10/08 14:50:58;;;;;;;8.35;1.20;;;;;;;;;;4967048;28;20042;-73